sensor_id;sensor_type;location;lat;lon;timestamp;pressure;altitude;pressure_sealevel;temperature;humidity
78444;BME280;67739;52.986;8.894;2023-11-18T00:02:16;102533.84;;;2.71;85.41
78444;BME280;67739;52.986;8.894;2023-11-18T00:04:42;102525.84;;;2.66;85.34
78444;BME280;67739;52.986;8.894;2023-11-18T00:07:08;102524.03;;;2.64;85.50
78444;BME280;67739;52.986;8.894;2023-11-18T00:09:34;102524.00;;;2.61;85.56
78444;BME280;67739;52.986;8.894;2023-11-18T00:11:59;102524.88;;;2.58;85.40
78444;BME280;67739;52.986;8.894;2023-11-18T00:14:25;102522.19;;;2.55;85.39
78444;BME280;67739;52.986;8.894;2023-11-18T00:16:50;102530.97;;;2.53;85.33
78444;BME280;67739;52.986;8.894;2023-11-18T00:19:15;102538.00;;;2.51;85.45
78444;BME280;67739;52.986;8.894;2023-11-18T00:21:40;102537.03;;;2.45;85.34
78444;BME280;67739;52.986;8.894;2023-11-18T00:24:06;102537.91;;;2.43;85.49
78444;BME280;67739;52.986;8.894;2023-11-18T00:26:33;102542.31;;;2.41;85.20
78444;BME280;67739;52.986;8.894;2023-11-18T00:28:59;102545.78;;;2.38;85.47
78444;BME280;67739;52.986;8.894;2023-11-18T00:31:25;102543.09;;;2.35;85.41
78444;BME280;67739;52.986;8.894;2023-11-18T00:33:51;102552.78;;;2.33;85.31
78444;BME280;67739;52.986;8.894;2023-11-18T00:36:16;102554.50;;;2.31;85.47
78444;BME280;67739;52.986;8.894;2023-11-18T00:38:41;102550.06;;;2.27;85.50
78444;BME280;67739;52.986;8.894;2023-11-18T00:41:07;102557.97;;;2.26;85.40
78444;BME280;67739;52.986;8.894;2023-11-18T00:43:32;102551.78;;;2.24;85.25
78444;BME280;67739;52.986;8.894;2023-11-18T00:45:57;102554.38;;;2.21;85.52
78444;BME280;67739;52.986;8.894;2023-11-18T00:48:24;102562.25;;;2.18;85.37
78444;BME280;67739;52.986;8.894;2023-11-18T00:50:50;102552.53;;;2.15;85.36
78444;BME280;67739;52.986;8.894;2023-11-18T00:53:15;102559.56;;;2.13;85.45
78444;BME280;67739;52.986;8.894;2023-11-18T00:55:42;102553.34;;;2.09;85.54
78444;BME280;67739;52.986;8.894;2023-11-18T00:58:07;102556.81;;;2.07;85.37
78444;BME280;67739;52.986;8.894;2023-11-18T01:00:33;102561.16;;;2.03;85.46
78444;BME280;67739;52.986;8.894;2023-11-18T01:02:58;102568.22;;;2.01;85.38
78444;BME280;67739;52.986;8.894;2023-11-18T01:05:23;102568.16;;;1.98;85.12
78444;BME280;67739;52.986;8.894;2023-11-18T01:07:49;102570.78;;;1.97;85.74
78444;BME280;67739;52.986;8.894;2023-11-18T01:10:14;102577.81;;;1.95;85.40
78444;BME280;67739;52.986;8.894;2023-11-18T01:12:40;102574.22;;;1.91;85.71
78444;BME280;67739;52.986;8.894;2023-11-18T01:15:06;102579.50;;;1.91;85.29
78444;BME280;67739;52.986;8.894;2023-11-18T01:17:33;102578.56;;;1.86;85.62
78444;BME280;67739;52.986;8.894;2023-11-18T01:19:58;102580.31;;;1.86;85.80
78444;BME280;67739;52.986;8.894;2023-11-18T01:22:26;102575.88;;;1.83;85.74
78444;BME280;67739;52.986;8.894;2023-11-18T01:24:51;102580.25;;;1.81;85.72
78444;BME280;67739;52.986;8.894;2023-11-18T01:27:16;102583.75;;;1.80;85.65
78444;BME280;67739;52.986;8.894;2023-11-18T01:29:44;102588.13;;;1.78;85.94
78444;BME280;67739;52.986;8.894;2023-11-18T01:32:09;102595.13;;;1.76;85.83
78444;BME280;67739;52.986;8.894;2023-11-18T01:34:35;102602.22;;;1.77;85.96
78444;BME280;67739;52.986;8.894;2023-11-18T01:37:01;102598.66;;;1.75;86.12
78444;BME280;67739;52.986;8.894;2023-11-18T01:39:26;102595.97;;;1.73;85.94
78444;BME280;67739;52.986;8.894;2023-11-18T01:41:52;102593.31;;;1.73;85.99
78444;BME280;67739;52.986;8.894;2023-11-18T01:44:18;102601.25;;;1.73;85.91
78444;BME280;67739;52.986;8.894;2023-11-18T01:46:45;102603.91;;;1.73;86.00
78444;BME280;67739;52.986;8.894;2023-11-18T01:49:14;102604.81;;;1.72;86.08
78444;BME280;67739;52.986;8.894;2023-11-18T01:51:46;102608.34;;;1.73;86.23
78444;BME280;67739;52.986;8.894;2023-11-18T01:54:12;102603.03;;;1.74;86.13
78444;BME280;67739;52.986;8.894;2023-11-18T01:56:42;102601.25;;;1.73;86.25
78444;BME280;67739;52.986;8.894;2023-11-18T01:59:09;102598.66;;;1.75;86.15
78444;BME280;67739;52.986;8.894;2023-11-18T02:01:35;102592.47;;;1.74;86.35
78444;BME280;67739;52.986;8.894;2023-11-18T02:04:01;102591.59;;;1.75;86.44
78444;BME280;67739;52.986;8.894;2023-11-18T02:06:26;102596.91;;;1.75;86.35
78444;BME280;67739;52.986;8.894;2023-11-18T02:08:52;102597.78;;;1.76;86.30
78444;BME280;67739;52.986;8.894;2023-11-18T02:11:20;102603.97;;;1.76;86.25
78444;BME280;67739;52.986;8.894;2023-11-18T02:13:52;102601.28;;;1.75;86.20
78444;BME280;67739;52.986;8.894;2023-11-18T02:16:19;102604.84;;;1.77;86.49
78444;BME280;67739;52.986;8.894;2023-11-18T02:18:46;102591.63;;;1.77;86.29
78444;BME280;67739;52.986;8.894;2023-11-18T02:21:13;102584.59;;;1.77;86.33
78444;BME280;67739;52.986;8.894;2023-11-18T02:23:40;102583.72;;;1.78;86.51
78444;BME280;67739;52.986;8.894;2023-11-18T02:26:06;102580.22;;;1.80;86.45
78444;BME280;67739;52.986;8.894;2023-11-18T02:28:31;102580.22;;;1.80;86.46
78444;BME280;67739;52.986;8.894;2023-11-18T02:31:03;102581.13;;;1.82;86.63
78444;BME280;67739;52.986;8.894;2023-11-18T02:33:36;102571.44;;;1.82;86.44
78444;BME280;67739;52.986;8.894;2023-11-18T02:36:29;102571.47;;;1.84;86.49
78444;BME280;67739;52.986;8.894;2023-11-18T02:39:04;102560.88;;;1.84;86.74
78444;BME280;67739;52.986;8.894;2023-11-18T02:41:34;102558.25;;;1.85;86.37
78444;BME280;67739;52.986;8.894;2023-11-18T02:44:02;102556.53;;;1.87;86.56
78444;BME280;67739;52.986;8.894;2023-11-18T02:46:28;102559.19;;;1.89;86.46
78444;BME280;67739;52.986;8.894;2023-11-18T02:48:54;102556.56;;;1.90;86.66
78444;BME280;67739;52.986;8.894;2023-11-18T02:51:20;102557.44;;;1.91;86.45
78444;BME280;67739;52.986;8.894;2023-11-18T02:53:45;102563.66;;;1.93;86.62
78444;BME280;67739;52.986;8.894;2023-11-18T02:56:11;102556.59;;;1.93;86.59
78444;BME280;67739;52.986;8.894;2023-11-18T02:58:36;102559.28;;;1.95;86.51
78444;BME280;67739;52.986;8.894;2023-11-18T03:01:02;102569.03;;;1.97;86.70
78444;BME280;67739;52.986;8.894;2023-11-18T03:03:29;102557.59;;;1.98;86.75
78444;BME280;67739;52.986;8.894;2023-11-18T03:05:54;102559.38;;;1.99;86.38
78444;BME280;67739;52.986;8.894;2023-11-18T03:08:20;102569.97;;;1.99;86.43
78444;BME280;67739;52.986;8.894;2023-11-18T03:10:45;102562.03;;;2.01;86.49
78444;BME280;67739;52.986;8.894;2023-11-18T03:13:10;102565.56;;;2.01;86.53
78444;BME280;67739;52.986;8.894;2023-11-18T03:15:37;102563.81;;;2.02;86.53
78444;BME280;67739;52.986;8.894;2023-11-18T03:18:03;102561.19;;;2.02;86.63
78444;BME280;67739;52.986;8.894;2023-11-18T03:20:28;102569.09;;;2.03;86.47
78444;BME280;67739;52.986;8.894;2023-11-18T03:22:54;102569.09;;;2.03;86.59
78444;BME280;67739;52.986;8.894;2023-11-18T03:25:19;102568.25;;;2.04;86.37
78444;BME280;67739;52.986;8.894;2023-11-18T03:27:47;102566.50;;;2.05;86.15
78444;BME280;67739;52.986;8.894;2023-11-18T03:30:12;102572.69;;;2.05;86.54
78444;BME280;67739;52.986;8.894;2023-11-18T03:32:39;102570.03;;;2.05;86.52
78444;BME280;67739;52.986;8.894;2023-11-18T03:35:08;102575.34;;;2.07;86.72
78444;BME280;67739;52.986;8.894;2023-11-18T03:37:40;102570.09;;;2.08;86.59
78444;BME280;67739;52.986;8.894;2023-11-18T03:40:11;102566.56;;;2.09;86.60
78444;BME280;67739;52.986;8.894;2023-11-18T03:42:37;102553.34;;;2.11;86.80
78444;BME280;67739;52.986;8.894;2023-11-18T03:45:03;102557.78;;;2.12;86.49
78444;BME280;67739;52.986;8.894;2023-11-18T03:47:30;102566.66;;;2.14;86.87
78444;BME280;67739;52.986;8.894;2023-11-18T03:49:56;102571.94;;;2.14;86.76
78444;BME280;67739;52.986;8.894;2023-11-18T03:52:21;102576.38;;;2.17;86.58
78444;BME280;67739;52.986;8.894;2023-11-18T03:54:47;102577.25;;;2.17;86.74
78444;BME280;67739;52.986;8.894;2023-11-18T03:57:12;102567.59;;;2.19;86.04
78444;BME280;67739;52.986;8.894;2023-11-18T03:59:40;102564.97;;;2.21;86.77
78444;BME280;67739;52.986;8.894;2023-11-18T04:02:08;102557.03;;;2.21;86.81
78444;BME280;67739;52.986;8.894;2023-11-18T04:04:36;102558.81;;;2.22;86.58
78444;BME280;67739;52.986;8.894;2023-11-18T04:07:01;102556.19;;;2.23;86.34
78444;BME280;67739;52.986;8.894;2023-11-18T04:09:27;102556.19;;;2.25;86.67
78444;BME280;67739;52.986;8.894;2023-11-18T04:11:52;102573.88;;;2.26;86.60
78444;BME280;67739;52.986;8.894;2023-11-18T04:14:18;102561.53;;;2.26;86.76
78444;BME280;67739;52.986;8.894;2023-11-18T04:16:45;102571.28;;;2.29;86.82
78444;BME280;67739;52.986;8.894;2023-11-18T04:19:11;102564.22;;;2.29;86.84
78444;BME280;67739;52.986;8.894;2023-11-18T04:21:37;102557.16;;;2.30;86.60
78444;BME280;67739;52.986;8.894;2023-11-18T04:24:02;102560.69;;;2.32;86.71
78444;BME280;67739;52.986;8.894;2023-11-18T04:26:28;102567.78;;;2.33;86.54
78444;BME280;67739;52.986;8.894;2023-11-18T04:28:54;102552.78;;;2.33;86.56
78444;BME280;67739;52.986;8.894;2023-11-18T04:31:19;102553.69;;;2.35;86.78
78444;BME280;67739;52.986;8.894;2023-11-18T04:33:46;102550.19;;;2.36;86.56
78444;BME280;67739;52.986;8.894;2023-11-18T04:36:11;102546.69;;;2.39;86.88
78444;BME280;67739;52.986;8.894;2023-11-18T04:38:38;102555.53;;;2.39;86.73
78444;BME280;67739;52.986;8.894;2023-11-18T04:41:04;102547.59;;;2.39;86.51
78444;BME280;67739;52.986;8.894;2023-11-18T04:43:29;102544.06;;;2.40;86.61
78444;BME280;67739;52.986;8.894;2023-11-18T04:45:55;102542.34;;;2.42;86.52
78444;BME280;67739;52.986;8.894;2023-11-18T04:48:21;102540.56;;;2.43;86.82
78444;BME280;67739;52.986;8.894;2023-11-18T04:50:46;102538.81;;;2.43;86.54
78444;BME280;67739;52.986;8.894;2023-11-18T04:53:12;102540.59;;;2.44;86.73
78444;BME280;67739;52.986;8.894;2023-11-18T04:55:37;102538.84;;;2.45;86.82
78444;BME280;67739;52.986;8.894;2023-11-18T04:58:03;102534.41;;;2.47;86.97
78444;BME280;67739;52.986;8.894;2023-11-18T05:00:31;102538.88;;;2.49;86.51
78444;BME280;67739;52.986;8.894;2023-11-18T05:02:57;102535.34;;;2.51;86.66
78444;BME280;67739;52.986;8.894;2023-11-18T05:05:23;102538.06;;;2.54;86.70
78444;BME280;67739;52.986;8.894;2023-11-18T05:07:48;102529.22;;;2.53;86.50
78444;BME280;67739;52.986;8.894;2023-11-18T05:10:13;102518.63;;;2.55;86.65
78444;BME280;67739;52.986;8.894;2023-11-18T05:12:39;102510.72;;;2.56;86.88
78444;BME280;67739;52.986;8.894;2023-11-18T05:15:09;102505.41;;;2.56;86.76
78444;BME280;67739;52.986;8.894;2023-11-18T05:17:36;102504.53;;;2.57;86.87
78444;BME280;67739;52.986;8.894;2023-11-18T05:20:05;102495.75;;;2.60;86.73
78444;BME280;67739;52.986;8.894;2023-11-18T05:22:34;102509.84;;;2.60;86.71
78444;BME280;67739;52.986;8.894;2023-11-18T05:24:59;102505.47;;;2.62;87.06
78444;BME280;67739;52.986;8.894;2023-11-18T05:27:25;102501.06;;;2.63;86.62
78444;BME280;67739;52.986;8.894;2023-11-18T05:29:51;102503.72;;;2.63;86.56
78444;BME280;67739;52.986;8.894;2023-11-18T05:32:22;102502.84;;;2.64;86.67
78444;BME280;67739;52.986;8.894;2023-11-18T05:34:49;102487.84;;;2.66;86.91
78444;BME280;67739;52.986;8.894;2023-11-18T05:37:15;102493.19;;;2.67;86.88
78444;BME280;67739;52.986;8.894;2023-11-18T05:39:43;102487.00;;;2.68;86.72
78444;BME280;67739;52.986;8.894;2023-11-18T05:42:10;102492.31;;;2.70;86.47
78444;BME280;67739;52.986;8.894;2023-11-18T05:44:39;102493.25;;;2.72;86.60
78444;BME280;67739;52.986;8.894;2023-11-18T05:47:08;102496.81;;;2.74;86.96
78444;BME280;67739;52.986;8.894;2023-11-18T05:49:36;102492.34;;;2.74;86.99
78444;BME280;67739;52.986;8.894;2023-11-18T05:52:02;102495.91;;;2.76;86.94
78444;BME280;67739;52.986;8.894;2023-11-18T05:54:27;102507.44;;;2.78;86.80
78444;BME280;67739;52.986;8.894;2023-11-18T05:56:53;102494.19;;;2.80;86.89
78444;BME280;67739;52.986;8.894;2023-11-18T05:59:19;102490.69;;;2.82;86.76
78444;BME280;67739;52.986;8.894;2023-11-18T06:01:44;102480.97;;;2.83;86.73
78444;BME280;67739;52.986;8.894;2023-11-18T06:04:09;102495.16;;;2.85;86.70
78444;BME280;67739;52.986;8.894;2023-11-18T06:06:35;102497.81;;;2.87;86.84
78444;BME280;67739;52.986;8.894;2023-11-18T06:09:02;102495.19;;;2.88;86.64
78444;BME280;67739;52.986;8.894;2023-11-18T06:11:33;102497.81;;;2.90;86.64
78444;BME280;67739;52.986;8.894;2023-11-18T06:14:00;102496.09;;;2.92;86.77
78444;BME280;67739;52.986;8.894;2023-11-18T06:16:26;102490.81;;;2.93;86.61
78444;BME280;67739;52.986;8.894;2023-11-18T06:18:53;102492.56;;;2.94;86.80
78444;BME280;67739;52.986;8.894;2023-11-18T06:21:20;102497.00;;;2.95;86.76
78444;BME280;67739;52.986;8.894;2023-11-18T06:23:49;102498.78;;;2.96;86.61
78444;BME280;67739;52.986;8.894;2023-11-18T06:26:15;102505.00;;;2.98;86.51
78444;BME280;67739;52.986;8.894;2023-11-18T06:28:42;102497.06;;;2.98;86.53
78444;BME280;67739;52.986;8.894;2023-11-18T06:31:08;102500.59;;;3.00;86.67
78444;BME280;67739;52.986;8.894;2023-11-18T06:33:44;102502.38;;;3.01;86.55
78444;BME280;67739;52.986;8.894;2023-11-18T06:38:38;102507.69;;;3.04;86.51
78444;BME280;67739;52.986;8.894;2023-11-18T06:41:05;102510.34;;;3.04;86.51
78444;BME280;67739;52.986;8.894;2023-11-18T06:43:35;102513.91;;;3.06;86.74
78444;BME280;67739;52.986;8.894;2023-11-18T06:46:16;102513.03;;;3.07;86.48
78444;BME280;67739;52.986;8.894;2023-11-18T06:48:41;102503.34;;;3.09;86.39
78444;BME280;67739;52.986;8.894;2023-11-18T06:51:07;102513.94;;;3.09;86.46
78444;BME280;67739;52.986;8.894;2023-11-18T06:53:33;102521.06;;;3.12;86.36
78444;BME280;67739;52.986;8.894;2023-11-18T06:55:59;102524.59;;;3.12;86.58
78444;BME280;67739;52.986;8.894;2023-11-18T06:58:25;102525.47;;;3.13;86.36
78444;BME280;67739;52.986;8.894;2023-11-18T07:00:50;102507.81;;;3.13;86.59
78444;BME280;67739;52.986;8.894;2023-11-18T07:03:16;102510.50;;;3.16;86.57
78444;BME280;67739;52.986;8.894;2023-11-18T07:05:41;102517.53;;;3.17;86.50
78444;BME280;67739;52.986;8.894;2023-11-18T07:08:07;102518.44;;;3.18;86.44
78444;BME280;67739;52.986;8.894;2023-11-18T07:10:33;102511.38;;;3.20;86.44
78444;BME280;67739;52.986;8.894;2023-11-18T07:13:00;102514.94;;;3.20;86.58
78444;BME280;67739;52.986;8.894;2023-11-18T07:15:25;102504.34;;;3.22;86.69
78444;BME280;67739;52.986;8.894;2023-11-18T07:17:50;102507.88;;;3.23;86.52
78444;BME280;67739;52.986;8.894;2023-11-18T07:20:16;102516.75;;;3.25;86.46
78444;BME280;67739;52.986;8.894;2023-11-18T07:22:42;102509.69;;;3.25;86.69
78444;BME280;67739;52.986;8.894;2023-11-18T07:25:07;102518.53;;;3.27;86.63
78444;BME280;67739;52.986;8.894;2023-11-18T07:27:35;102523.88;;;3.29;86.63
78444;BME280;67739;52.986;8.894;2023-11-18T07:30:01;102523.00;;;3.30;86.54
78444;BME280;67739;52.986;8.894;2023-11-18T07:32:26;102516.81;;;3.31;86.65
78444;BME280;67739;52.986;8.894;2023-11-18T07:34:51;102521.25;;;3.32;86.59
78444;BME280;67739;52.986;8.894;2023-11-18T07:37:20;102531.84;;;3.33;86.50
78444;BME280;67739;52.986;8.894;2023-11-18T07:39:46;102523.91;;;3.35;86.63
78444;BME280;67739;52.986;8.894;2023-11-18T07:42:14;102523.06;;;3.37;86.72
78444;BME280;67739;52.986;8.894;2023-11-18T07:44:40;102530.16;;;3.40;86.62
78444;BME280;67739;52.986;8.894;2023-11-18T07:47:06;102519.56;;;3.41;86.82
78444;BME280;67739;52.986;8.894;2023-11-18T07:49:34;102511.63;;;3.43;86.80
78444;BME280;67739;52.986;8.894;2023-11-18T07:52:03;102498.38;;;3.44;86.66
78444;BME280;67739;52.986;8.894;2023-11-18T07:54:29;102506.34;;;3.46;86.81
78444;BME280;67739;52.986;8.894;2023-11-18T07:56:54;102510.75;;;3.47;86.80
78444;BME280;67739;52.986;8.894;2023-11-18T07:59:20;102508.97;;;3.47;86.79
78444;BME280;67739;52.986;8.894;2023-11-18T08:01:46;102500.16;;;3.50;86.76
78444;BME280;67739;52.986;8.894;2023-11-18T08:04:14;102494.88;;;3.51;86.65
78444;BME280;67739;52.986;8.894;2023-11-18T08:06:40;102491.38;;;3.54;86.67
78444;BME280;67739;52.986;8.894;2023-11-18T08:09:06;102487.88;;;3.58;86.76
78444;BME280;67739;52.986;8.894;2023-11-18T08:11:39;102483.47;;;3.60;86.78
78444;BME280;67739;52.986;8.894;2023-11-18T08:14:09;102487.88;;;3.63;86.88
78444;BME280;67739;52.986;8.894;2023-11-18T08:16:35;102480.84;;;3.66;86.91
78444;BME280;67739;52.986;8.894;2023-11-18T08:19:01;102482.63;;;3.67;86.92
78444;BME280;67739;52.986;8.894;2023-11-18T08:21:27;102475.56;;;3.71;87.08
78444;BME280;67739;52.986;8.894;2023-11-18T08:23:53;102472.03;;;3.72;87.13
78444;BME280;67739;52.986;8.894;2023-11-18T08:26:19;102494.16;;;3.75;87.16
78444;BME280;67739;52.986;8.894;2023-11-18T08:28:44;102486.22;;;3.78;87.07
78444;BME280;67739;52.986;8.894;2023-11-18T08:31:13;102484.47;;;3.80;86.87
78444;BME280;67739;52.986;8.894;2023-11-18T08:33:40;102486.25;;;3.83;87.06
78444;BME280;67739;52.986;8.894;2023-11-18T08:36:06;102480.09;;;3.85;87.35
78444;BME280;67739;52.986;8.894;2023-11-18T08:38:32;102489.84;;;3.88;87.30
78444;BME280;67739;52.986;8.894;2023-11-18T08:40:58;102488.06;;;3.90;87.13
78444;BME280;67739;52.986;8.894;2023-11-18T08:43:23;102488.09;;;3.93;87.39
78444;BME280;67739;52.986;8.894;2023-11-18T08:45:50;102485.44;;;3.95;87.26
78444;BME280;67739;52.986;8.894;2023-11-18T08:48:15;102480.16;;;3.96;87.14
78444;BME280;67739;52.986;8.894;2023-11-18T08:50:43;102477.53;;;3.99;87.44
78444;BME280;67739;52.986;8.894;2023-11-18T08:53:10;102481.06;;;4.01;87.29
78444;BME280;67739;52.986;8.894;2023-11-18T08:55:37;102474.91;;;4.04;87.56
78444;BME280;67739;52.986;8.894;2023-11-18T08:58:11;102478.41;;;4.06;87.23
78444;BME280;67739;52.986;8.894;2023-11-18T09:00:54;102470.47;;;4.07;87.30
78444;BME280;67739;52.986;8.894;2023-11-18T09:03:24;102467.84;;;4.10;87.23
78444;BME280;67739;52.986;8.894;2023-11-18T09:05:55;102469.63;;;4.13;87.57
78444;BME280;67739;52.986;8.894;2023-11-18T09:08:37;102452.81;;;4.15;87.48
78444;BME280;67739;52.986;8.894;2023-11-18T09:11:08;102443.09;;;4.17;87.46
78444;BME280;67739;52.986;8.894;2023-11-18T09:13:36;102443.97;;;4.19;87.27
78444;BME280;67739;52.986;8.894;2023-11-18T09:16:06;102447.53;;;4.23;87.39
78444;BME280;67739;52.986;8.894;2023-11-18T09:18:36;102457.28;;;4.25;87.51
78444;BME280;67739;52.986;8.894;2023-11-18T09:21:02;102455.53;;;4.28;87.40
78444;BME280;67739;52.986;8.894;2023-11-18T09:23:32;102449.34;;;4.32;87.39
78444;BME280;67739;52.986;8.894;2023-11-18T09:26:00;102454.66;;;4.35;87.39
78444;BME280;67739;52.986;8.894;2023-11-18T09:28:27;102452.91;;;4.38;87.40
78444;BME280;67739;52.986;8.894;2023-11-18T09:30:56;102449.38;;;4.41;87.59
78444;BME280;67739;52.986;8.894;2023-11-18T09:33:26;102458.25;;;4.44;87.30
78444;BME280;67739;52.986;8.894;2023-11-18T09:35:58;102460.03;;;4.45;87.32
78444;BME280;67739;52.986;8.894;2023-11-18T09:40:53;102454.72;;;4.51;87.33
78444;BME280;67739;52.986;8.894;2023-11-18T09:43:19;102455.63;;;4.53;87.29
78444;BME280;67739;52.986;8.894;2023-11-18T09:45:49;102448.53;;;4.57;87.40
78444;BME280;67739;52.986;8.894;2023-11-18T09:48:18;102429.97;;;4.60;87.25
78444;BME280;67739;52.986;8.894;2023-11-18T09:50:47;102434.38;;;4.62;87.42
78444;BME280;67739;52.986;8.894;2023-11-18T09:53:14;102437.03;;;4.67;87.36
78444;BME280;67739;52.986;8.894;2023-11-18T09:55:59;102429.97;;;4.71;87.26
78444;BME280;67739;52.986;8.894;2023-11-18T09:58:37;102430.00;;;4.74;87.09
78444;BME280;67739;52.986;8.894;2023-11-18T10:01:06;102422.00;;;4.77;87.35
78444;BME280;67739;52.986;8.894;2023-11-18T10:03:31;102408.72;;;4.80;87.10
78444;BME280;67739;52.986;8.894;2023-11-18T10:06:02;102410.50;;;4.84;87.34
78444;BME280;67739;52.986;8.894;2023-11-18T10:08:31;102398.97;;;4.86;87.33
78444;BME280;67739;52.986;8.894;2023-11-18T10:10:56;102394.56;;;4.90;87.22
78444;BME280;67739;52.986;8.894;2023-11-18T10:13:31;102389.22;;;4.93;87.16
78444;BME280;67739;52.986;8.894;2023-11-18T10:15:59;102377.72;;;4.97;87.12
78444;BME280;67739;52.986;8.894;2023-11-18T10:18:25;102366.19;;;5.00;87.12
78444;BME280;67739;52.986;8.894;2023-11-18T10:20:53;102360.88;;;5.03;87.23
78444;BME280;67739;52.986;8.894;2023-11-18T10:23:20;102367.06;;;5.06;87.07
78444;BME280;67739;52.986;8.894;2023-11-18T10:25:49;102374.16;;;5.10;87.02
78444;BME280;67739;52.986;8.894;2023-11-18T10:28:28;102362.63;;;5.13;87.07
78444;BME280;67739;52.986;8.894;2023-11-18T10:31:06;102360.88;;;5.18;86.83
78444;BME280;67739;52.986;8.894;2023-11-18T10:35:59;102361.72;;;5.23;87.03
78444;BME280;67739;52.986;8.894;2023-11-18T10:38:29;102364.38;;;5.27;86.92
78444;BME280;67739;52.986;8.894;2023-11-18T10:40:56;102356.41;;;5.30;87.05
78444;BME280;67739;52.986;8.894;2023-11-18T10:43:25;102354.63;;;5.32;86.87
78444;BME280;67739;52.986;8.894;2023-11-18T10:48:45;102351.06;;;5.40;87.30
78444;BME280;67739;52.986;8.894;2023-11-18T10:53:46;102350.19;;;5.47;87.10
78444;BME280;67739;52.986;8.894;2023-11-18T10:56:26;102345.69;;;5.52;86.96
78444;BME280;67739;52.986;8.894;2023-11-18T10:58:57;102332.41;;;5.53;87.04
78444;BME280;67739;52.986;8.894;2023-11-18T11:01:33;102322.63;;;5.57;87.73
78444;BME280;67739;52.986;8.894;2023-11-18T11:03:59;102321.75;;;5.59;87.56
78444;BME280;67739;52.986;8.894;2023-11-18T11:06:25;102322.59;;;5.63;87.21
78444;BME280;67739;52.986;8.894;2023-11-18T11:08:53;102313.72;;;5.65;87.50
78444;BME280;67739;52.986;8.894;2023-11-18T11:11:20;102312.81;;;5.69;87.54
78444;BME280;67739;52.986;8.894;2023-11-18T11:13:49;102300.38;;;5.73;87.52
78444;BME280;67739;52.986;8.894;2023-11-18T11:16:18;102311.00;;;5.78;87.45
78444;BME280;67739;52.986;8.894;2023-11-18T11:18:47;102299.47;;;5.80;87.44
78444;BME280;67739;52.986;8.894;2023-11-18T11:21:17;102279.03;;;5.84;87.68
78444;BME280;67739;52.986;8.894;2023-11-18T11:23:53;102279.91;;;5.87;87.50
78444;BME280;67739;52.986;8.894;2023-11-18T11:26:26;102277.28;;;5.90;87.32
78444;BME280;67739;52.986;8.894;2023-11-18T11:31:39;102267.44;;;5.98;87.68
78444;BME280;67739;52.986;8.894;2023-11-18T11:34:17;102267.44;;;6.01;87.64
78444;BME280;67739;52.986;8.894;2023-11-18T11:36:49;102270.03;;;6.06;87.56
78444;BME280;67739;52.986;8.894;2023-11-18T11:39:16;102254.06;;;6.09;87.62
78444;BME280;67739;52.986;8.894;2023-11-18T11:41:54;102248.72;;;6.12;87.24
78444;BME280;67739;52.986;8.894;2023-11-18T11:44:22;102255.78;;;6.16;87.62
78444;BME280;67739;52.986;8.894;2023-11-18T11:46:54;102246.91;;;6.19;87.45
78444;BME280;67739;52.986;8.894;2023-11-18T11:49:21;102234.41;;;6.22;87.50
78444;BME280;67739;52.986;8.894;2023-11-18T11:52:01;102230.84;;;6.25;87.48
78444;BME280;67739;52.986;8.894;2023-11-18T11:54:34;102237.06;;;6.28;87.35
78444;BME280;67739;52.986;8.894;2023-11-18T11:57:02;102232.59;;;6.30;87.45
78444;BME280;67739;52.986;8.894;2023-11-18T12:02:09;102213.88;;;6.36;87.44
78444;BME280;67739;52.986;8.894;2023-11-18T12:04:35;102219.19;;;6.41;87.19
78444;BME280;67739;52.986;8.894;2023-11-18T12:07:06;102205.84;;;6.43;87.27
78444;BME280;67739;52.986;8.894;2023-11-18T12:09:35;102206.72;;;6.45;87.22
78444;BME280;67739;52.986;8.894;2023-11-18T12:12:17;102196.94;;;6.47;87.29
78444;BME280;67739;52.986;8.894;2023-11-18T12:14:58;102192.44;;;6.50;87.13
78444;BME280;67739;52.986;8.894;2023-11-18T12:20:43;102192.41;;;6.55;87.21
78444;BME280;67739;52.986;8.894;2023-11-18T12:23:23;102193.28;;;6.57;87.02
78444;BME280;67739;52.986;8.894;2023-11-18T12:25:52;102203.94;;;6.58;86.98
78444;BME280;67739;52.986;8.894;2023-11-18T12:28:25;102200.34;;;6.61;87.17
78444;BME280;67739;52.986;8.894;2023-11-18T12:30:56;102205.69;;;6.62;86.99
78444;BME280;67739;52.986;8.894;2023-11-18T12:33:23;102206.50;;;6.64;86.98
78444;BME280;67739;52.986;8.894;2023-11-18T12:41:33;102203.81;;;6.70;86.72
78444;BME280;67739;52.986;8.894;2023-11-18T12:48:57;102202.88;;;6.74;86.54
78444;BME280;67739;52.986;8.894;2023-11-18T12:51:25;102198.44;;;6.75;86.83
78444;BME280;67739;52.986;8.894;2023-11-18T12:53:51;102196.63;;;6.77;86.58
78444;BME280;67739;52.986;8.894;2023-11-18T12:56:19;102187.72;;;6.78;86.60
78444;BME280;67739;52.986;8.894;2023-11-18T12:58:45;102178.81;;;6.79;86.57
78444;BME280;67739;52.986;8.894;2023-11-18T13:01:12;102188.59;;;6.80;86.58
78444;BME280;67739;52.986;8.894;2023-11-18T13:03:40;102189.47;;;6.81;86.47
78444;BME280;67739;52.986;8.894;2023-11-18T13:06:09;102182.34;;;6.81;86.51
78444;BME280;67739;52.986;8.894;2023-11-18T13:08:37;102177.00;;;6.81;86.60
78444;BME280;67739;52.986;8.894;2023-11-18T13:11:03;102162.78;;;6.84;86.37
78444;BME280;67739;52.986;8.894;2023-11-18T13:13:33;102159.22;;;6.83;86.24
78444;BME280;67739;52.986;8.894;2023-11-18T13:15:58;102165.44;;;6.84;86.30
78444;BME280;67739;52.986;8.894;2023-11-18T13:18:24;102163.66;;;6.84;86.32
78444;BME280;67739;52.986;8.894;2023-11-18T13:20:57;102142.31;;;6.84;86.15
78444;BME280;67739;52.986;8.894;2023-11-18T13:23:26;102128.97;;;6.84;86.09
78444;BME280;67739;52.986;8.894;2023-11-18T13:25:56;102117.44;;;6.84;86.08
78444;BME280;67739;52.986;8.894;2023-11-18T13:28:25;102114.75;;;6.84;86.04
78444;BME280;67739;52.986;8.894;2023-11-18T13:30:50;102110.31;;;6.83;86.38
78444;BME280;67739;52.986;8.894;2023-11-18T13:33:17;102096.09;;;6.82;85.97
78444;BME280;67739;52.986;8.894;2023-11-18T13:35:42;102092.53;;;6.82;86.31